KWRL/WRL METAR and TAF weather

Enter ICAO airport designator
Station Type Date Time Source
KWRL METAR 2020/07/14 22:53 UTC NOAA

KWRL 142253Z AUTO 02009G15KT 10SM CLR 28/02 A3000 RMK AO2 SLP123 T02780017


Station Type Date Time Source
KWRL Decoded METAR 2020/07/14 22:53 UTC NOAA

WORLAND MUNICIPAL AIRPORT, WY, United States (KWRL) 43-58N 107-57W 1271M
Jul 14, 2020 - 06:53 PM EDT / 2020.07.14 2253 UTC
Wind: from the NNE (020 degrees) at 10 MPH (9 KT) gusting to 17 MPH (15 KT):0
Visibility: 10 mile(s):0
Sky conditions: clear
Temperature: 82.0 F (27.8 C)
Dew Point: 35.1 F (1.7 C)
Relative Humidity: 18%
Pressure (altimeter): 30 in. Hg (1015 hPa)
ob: KWRL 142253Z AUTO 02009G15KT 10SM CLR 28/02 A3000 RMK AO2 SLP123 T02780017
cycle: 23

Station Type Date Time Source
KWRL TAF 2020/07/14 18:36 UTC NOAA

TAF KWRL 141735Z 1418/1518 36006KT P6SM SCT100
FM150600 VRB05KT P6SM FEW150

Example: see airport list